Waukon Junction, Iowa
Current Conditions -  °F | °C
As of 1:55 PM on Wednesday 17 Dec 2014 (Local Time) from KPDC Reporting Station
Broken Clouds Broken Clouds  
Wind Chill: 16°   Ceiling: 2400
Heat Index: 24°   Visibility: 10mi
Dew Point: 13°   Wind: 7mph
Humidity: 63%   Direction: 260°W
Pressure: 30.27"   Gusts: NA
Location:  43.1584°N, 91.2436°W
Report Text: KPDC 171955Z AUTO 26006KT 10SM BKN024 M04/M10 A3027 RMK AO2 T10441105
Loading
Personal Weather Stations






























Interactive Weather Map New forecast layout! Learn more

10-Day Weather Forecast

Advertisements
Track Severe Weather on mobile